Time;durP1;ratioP1;P1;durP2;ratioP2;P2;SDS_P1;SDS_P2;PMS_P1;PMS_P2;Temp;Humidity;BMP_temperature;BMP_pressure;BME280_temperature;BME280_humidity;BME280_pressure;Samples;Min_cycle;Max_cycle;Signal;HPM_P1;HPM_P2
2022/02/01 00:02:33;;;;;;;2.62;1.30;;;;;;;1.94;89.59;100963.99;1917017;75;21118;-61
2022/02/01 00:05:02;;;;;;;2.85;1.37;;;;;;;1.95;89.64;100966.15;1913952;75;21000;-60
2022/02/01 00:07:42;;;;;;;5.47;2.50;;;;;;;1.82;89.89;100963.98;1914934;75;21016;-60
2022/02/01 00:10:13;;;;;;;4.55;2.30;;;;;;;1.70;90.01;100963.11;1910071;75;21043;-60
2022/02/01 00:12:53;;;;;;;4.08;2.30;;;;;;;1.70;90.09;100971.34;1914090;75;21145;-60
2022/02/01 00:34:53;;;;;;;5.92;2.12;;;;;;;1.53;90.39;100984.27;1914908;75;21107;-60
2022/02/01 00:36:54;;;;;;;6.65;2.92;;;;;;;1.59;90.17;100982.14;1911714;75;21061;-60
2022/02/01 00:39:29;;;;;;;11.45;3.02;;;;;;;1.57;89.76;100982.55;1914796;75;21048;-60
2022/02/01 00:41:53;;;;;;;4.50;2.95;;;;;;;1.55;89.50;100987.76;1883067;76;21061;-60
2022/02/01 00:44:21;;;;;;;6.65;3.30;;;;;;;1.52;89.14;100978.66;1884325;76;21059;-60
2022/02/01 00:46:50;;;;;;;7.05;3.52;;;;;;;1.46;88.52;100975.62;1884396;76;21047;-62
2022/02/01 00:49:19;;;;;;;6.62;3.47;;;;;;;1.40;88.15;100972.99;1884467;76;21012;-62
2022/02/01 00:51:48;;;;;;;11.80;3.92;;;;;;;1.37;87.86;100973.45;1884295;76;21499;-63
2022/02/01 00:54:17;;;;;;;7.67;3.60;;;;;;;1.33;87.67;100975.16;1888174;75;21206;-63
2022/02/01 00:56:45;;;;;;;11.18;4.20;;;;;;;1.28;87.58;100976.43;1916982;75;21492;-60
2022/02/01 00:59:14;;;;;;;6.50;3.70;;;;;;;1.29;87.79;100981.18;1916967;75;21071;-61
2022/02/01 01:01:43;;;;;;;10.90;4.58;;;;;;;1.32;88.27;100987.69;1916940;75;21355;-62
2022/02/01 01:04:11;;;;;;;12.98;4.03;;;;;;;1.34;88.85;100982.06;1899192;75;21051;-62
2022/02/01 01:06:40;;;;;;;11.70;4.20;;;;;;;1.40;89.43;100987.27;1884374;76;21166;-62
2022/02/01 01:09:09;;;;;;;8.63;4.55;;;;;;;1.44;89.82;101008.48;1884339;76;21080;-62
2022/02/01 01:11:38;;;;;;;8.13;4.30;;;;;;;1.49;90.14;101053.46;1884594;76;21499;-61
2022/02/01 01:14:34;;;;;;;8.25;4.00;;;;;;;1.52;90.26;101018.44;1886576;75;21075;-60
2022/02/01 01:43:28;;;;;;;12.88;5.50;;;;;;;0.96;90.40;100994.05;1899565;75;21064;-62
2022/02/01 01:44:07;;;;;;;13.30;6.22;;;;;;;0.97;90.31;100989.72;1868749;77;21080;-63
2022/02/01 01:54:34;;;;;;;8.20;3.92;;;;;;;0.72;88.59;100997.39;1887673;75;21072;-61
2022/02/01 01:57:04;;;;;;;6.25;3.47;;;;;;;0.70;88.33;100990.44;1901289;75;21005;-61
2022/02/01 01:59:34;;;;;;;8.48;3.75;;;;;;;0.66;88.16;100990.85;1901153;75;21037;-61
2022/02/01 02:02:04;;;;;;;9.83;4.15;;;;;;;0.61;88.05;100997.76;1901238;75;21052;-61
2022/02/01 02:04:33;;;;;;;8.20;3.98;;;;;;;0.59;87.88;101003.36;1898973;75;21013;-62
2022/02/01 02:07:01;;;;;;;8.35;4.37;;;;;;;0.48;88.14;100997.22;1901119;75;21150;-62
2022/02/01 02:09:30;;;;;;;5.37;2.30;;;;;;;0.38;88.55;101006.22;1901319;75;21473;-61
2022/02/01 02:12:10;;;;;;;5.67;2.52;;;;;;;0.32;88.89;101004.04;1901340;75;21533;-61
2022/02/01 02:14:31;;;;;;;4.72;2.85;;;;;;;0.33;89.01;101003.16;1899279;75;21041;-61
2022/02/01 02:17:01;;;;;;;5.28;2.80;;;;;;;0.27;89.33;101014.34;1901338;75;21107;-62
2022/02/01 02:19:32;;;;;;;4.65;2.20;;;;;;;0.27;89.67;101018.67;1884868;75;21041;-62
2022/02/01 02:22:03;;;;;;;6.03;2.85;;;;;;;0.24;89.93;101015.64;1868901;77;21036;-62
2022/02/01 02:24:35;;;;;;;6.12;2.50;;;;;;;0.22;89.77;101019.91;1876735;76;21572;-62
2022/02/01 02:27:04;;;;;;;5.05;2.55;;;;;;;0.20;89.52;101013.86;1884597;76;21043;-62
2022/02/01 02:29:33;;;;;;;4.28;2.95;;;;;;;0.17;89.31;101017.74;1886637;75;21048;-64
2022/02/01 02:32:03;;;;;;;4.03;2.20;;;;;;;0.16;89.10;101021.17;1884456;76;21083;-61
2022/02/01 02:34:32;;;;;;;7.00;2.90;;;;;;;0.17;88.88;101018.59;1884480;76;21039;-61
2022/02/01 02:37:06;;;;;;;6.70;2.72;;;;;;;0.15;88.74;101012.55;1884458;76;21088;-61
2022/02/01 02:47:30;;;;;;;6.40;2.65;;;;;;;0.15;88.44;100999.59;1917002;75;21483;-60
2022/02/01 02:49:59;;;;;;;7.90;3.30;;;;;;;0.12;88.40;100999.56;1917158;75;21102;-62
2022/02/01 02:52:28;;;;;;;8.45;3.15;;;;;;;0.13;88.33;101005.19;1916924;75;21036;-63
2022/02/01 02:54:58;;;;;;;7.20;3.42;;;;;;;0.11;88.37;101000.44;1914669;75;21511;-60
2022/02/01 02:57:27;;;;;;;8.93;3.58;;;;;;;0.14;88.66;101007.34;1917029;75;21114;-62
2022/02/01 02:59:56;;;;;;;8.88;3.55;;;;;;;0.19;89.15;101006.52;1917027;75;21068;-60
2022/02/01 03:02:24;;;;;;;10.05;4.03;;;;;;;0.28;89.70;101010.91;1917021;75;21479;-60
2022/02/01 03:04:53;;;;;;;11.08;3.92;;;;;;;0.35;90.08;101002.34;1916982;75;21522;-59
2022/02/01 03:07:22;;;;;;;7.22;3.70;;;;;;;0.41;90.18;101000.62;1916988;75;21095;-60
2022/02/01 03:09:50;;;;;;;8.98;3.85;;;;;;;0.41;89.96;101001.92;1889331;75;21052;-60
2022/02/01 03:12:33;;;;;;;9.65;4.25;;;;;;;0.38;89.51;101006.66;1884438;76;21542;-60
2022/02/01 03:15:07;;;;;;;11.45;4.37;;;;;;;0.30;89.33;101002.73;1894853;75;21048;-59
2022/02/01 03:19:55;;;;;;;7.25;3.27;;;;;;;0.24;88.73;101001.40;1914751;75;21044;-59
2022/02/01 03:22:30;;;;;;;16.75;5.70;;;;;;;0.20;88.63;100999.61;1916843;74;21044;-60
2022/02/01 03:25:01;;;;;;;22.05;7.83;;;;;;;0.17;88.50;100997.02;1912857;75;21066;-60
2022/02/01 03:27:30;;;;;;;17.17;5.75;;;;;;;0.15;88.80;101002.63;1906881;75;21146;-60
2022/02/01 03:29:59;;;;;;;59.70;8.00;;;;;;;0.12;89.06;101003.88;1906845;75;21045;-61
2022/02/01 03:32:27;;;;;;;66.42;8.20;;;;;;;0.03;89.15;100996.89;1906832;75;21197;-59
2022/02/01 03:34:56;;;;;;;107.17;10.48;;;;;;;0.02;89.33;101008.12;1880061;75;21084;-61
2022/02/01 03:37:25;;;;;;;123.92;10.00;;;;;;;-0.04;89.46;100998.59;1874591;76;21522;-60
2022/02/01 03:39:53;;;;;;;103.25;7.40;;;;;;;-0.10;89.73;101004.13;1874629;76;21088;-60
2022/02/01 03:42:24;;;;;;;54.20;5.83;;;;;;;-0.10;89.98;101005.42;1874627;76;21056;-61
2022/02/01 03:44:52;;;;;;;64.47;7.40;;;;;;;-0.08;89.85;101012.33;1876644;75;21123;-59
2022/02/01 03:47:21;;;;;;;72.65;7.62;;;;;;;-0.03;89.73;101028.78;1874747;76;21141;-59
2022/02/01 03:49:50;;;;;;;91.75;9.65;;;;;;;0.02;89.82;101040.89;1874591;76;21080;-61
2022/02/01 03:52:19;;;;;;;21.93;7.25;;;;;;;0.05;89.99;101038.34;1901458;75;21408;-61
2022/02/01 03:54:47;;;;;;;20.20;5.35;;;;;;;0.05;89.71;101045.67;1906895;75;21036;-61
2022/02/01 03:57:16;;;;;;;15.53;5.50;;;;;;;0.04;89.42;101056.01;1906744;75;21162;-61
2022/02/01 03:59:47;;;;;;;16.55;5.60;;;;;;;0.05;89.46;101055.17;1904495;75;21044;-61
2022/02/01 04:02:17;;;;;;;11.35;4.50;;;;;;;0.07;89.55;101052.16;1907023;75;21005;-61
2022/02/01 04:04:52;;;;;;;8.75;4.12;;;;;;;0.10;89.56;101040.55;1906886;75;21025;-61
2022/02/01 04:07:17;;;;;;;12.03;4.50;;;;;;;0.05;89.76;101043.52;1906213;75;21108;-61
2022/02/01 04:09:45;;;;;;;12.98;4.67;;;;;;;0.04;90.09;101046.95;1906738;75;21149;-62
2022/02/01 04:12:14;;;;;;;11.68;4.47;;;;;;;0.04;90.19;101050.43;1906892;75;21095;-60
2022/02/01 04:14:44;;;;;;;13.60;5.40;;;;;;;0.09;90.16;101059.11;1889728;75;21137;-60
2022/02/01 04:17:13;;;;;;;10.75;4.47;;;;;;;0.17;90.29;101066.94;1874718;76;21028;-61
2022/02/01 04:19:43;;;;;;;14.05;5.05;;;;;;;0.28;90.51;101073.52;1874513;76;21122;-61
2022/02/01 04:22:14;;;;;;;10.32;3.60;;;;;;;0.38;90.76;101077.47;1874534;76;21072;-61
2022/02/01 04:25:01;;;;;;;14.80;4.80;;;;;;;0.45;91.00;101095.67;1811696;78;21144;-58
2022/02/01 04:27:31;;;;;;;9.08;3.80;;;;;;;0.49;91.03;101097.42;1822097;79;21186;-58
2022/02/01 04:30:11;;;;;;;15.90;4.50;;;;;;;0.51;91.20;101108.66;1822128;79;21539;-58
2022/02/01 04:32:42;;;;;;;18.05;5.67;;;;;;;0.56;91.33;101117.35;1822007;79;21158;-61
2022/02/01 04:35:14;;;;;;;15.32;6.40;;;;;;;0.60;91.41;101108.73;1822115;79;21117;-62
2022/02/01 04:37:43;;;;;;;13.78;5.72;;;;;;;0.62;91.43;101127.75;1822203;79;21153;-60
2022/02/01 04:40:15;;;;;;;12.85;5.03;;;;;;;0.58;91.47;101126.00;1820525;79;21075;-62
2022/02/01 04:42:45;;;;;;;4.47;1.65;;;;;;;0.55;91.50;101128.55;1822123;79;21621;-62
2022/02/01 04:45:17;;;;;;;7.33;2.98;;;;;;;0.58;91.75;101116.94;1822040;78;21108;-60
2022/02/01 04:47:46;;;;;;;5.03;3.00;;;;;;;0.66;92.17;101123.47;1822188;79;21546;-62
2022/02/01 04:50:20;;;;;;;5.75;2.25;;;;;;;0.74;92.37;101125.27;1820501;79;21531;-61
2022/02/01 04:52:52;;;;;;;2.22;1.52;;;;;;;0.79;92.54;101107.58;1821307;79;21503;-61
2022/02/01 04:55:22;;;;;;;3.05;1.45;;;;;;;0.86;92.67;101103.73;1821857;79;21571;-60
2022/02/01 04:57:54;;;;;;;1.95;1.00;;;;;;;0.91;92.84;101067.05;1773605;81;21595;-61
2022/02/01 05:00:26;;;;;;;7.40;1.57;;;;;;;0.95;93.20;101073.12;1779192;79;21015;-60
2022/02/01 05:02:59;;;;;;;1.65;1.00;;;;;;;1.01;93.51;101075.73;1801056;80;21051;-62
2022/02/01 05:05:29;;;;;;;6.47;1.60;;;;;;;1.07;93.59;101086.16;1801318;80;21041;-63
2022/02/01 05:08:03;;;;;;;3.42;1.35;;;;;;;1.16;93.59;101095.70;1800964;80;21481;-61
2022/02/01 05:10:34;;;;;;;3.50;1.57;;;;;;;1.22;93.55;101099.64;1802487;79;21121;-62
2022/02/01 05:13:33;;;;;;;4.35;1.52;;;;;;;1.26;93.61;101094.90;1801174;80;21062;-62
2022/02/01 05:15:36;;;;;;;5.28;1.80;;;;;;;1.33;93.53;101098.41;1797042;80;21577;-63
2022/02/01 05:18:05;;;;;;;5.45;1.55;;;;;;;1.39;93.49;101107.50;1801068;80;21043;-62
2022/02/01 05:20:55;;;;;;;2.87;1.40;;;;;;;1.42;93.35;101108.82;1800944;80;21464;-62
2022/02/01 05:23:22;;;;;;;4.87;1.60;;;;;;;1.44;93.35;101115.28;1820484;77;21089;-61
2022/02/01 05:25:50;;;;;;;11.18;2.10;;;;;;;1.46;93.39;101113.59;1814330;79;21099;-62
2022/02/01 05:28:20;;;;;;;3.12;2.00;;;;;;;1.48;93.48;101108.84;1814361;79;21068;-61
2022/02/01 05:30:49;;;;;;;1.20;1.00;;;;;;;1.53;93.65;101109.73;1814448;79;21538;-64
2022/02/01 05:33:18;;;;;;;4.55;1.35;;;;;;;1.61;93.81;101113.65;1812964;79;21115;-61
2022/02/01 05:35:46;;;;;;;3.25;0.80;;;;;;;1.71;93.94;101114.54;1814401;79;21057;-60
2022/02/01 05:38:15;;;;;;;6.62;1.20;;;;;;;1.78;93.97;101117.59;1814357;79;21091;-61
2022/02/01 05:40:43;;;;;;;2.15;1.05;;;;;;;1.86;94.03;101118.50;1796964;79;21142;-60
2022/02/01 05:43:18;;;;;;;2.12;1.00;;;;;;;1.92;94.10;101119.80;1796264;80;21485;-61
2022/02/01 05:45:43;;;;;;;0.82;0.60;;;;;;;1.98;94.08;101126.75;1795534;80;21146;-60
2022/02/01 05:48:13;;;;;;;2.70;0.62;;;;;;;2.04;93.90;101115.50;1796286;80;21087;-60
2022/02/01 05:50:42;;;;;;;0.85;0.80;;;;;;;2.11;94.00;101117.25;1797637;79;21106;-61
2022/02/01 05:53:11;;;;;;;3.42;1.05;;;;;;;2.19;94.08;101124.61;1796463;80;21043;-60
2022/02/01 05:55:40;;;;;;;2.87;1.05;;;;;;;2.25;94.13;101138.94;1796381;80;21115;-60
2022/02/01 05:58:09;;;;;;;1.95;1.05;;;;;;;2.27;94.08;101135.90;1796380;80;21379;-60
2022/02/01 06:00:37;;;;;;;3.22;1.47;;;;;;;2.30;94.05;101150.17;1796346;80;21074;-60
2022/02/01 06:03:06;;;;;;;2.92;0.85;;;;;;;2.31;94.10;101155.82;1796339;80;21462;-62
2022/02/01 06:05:35;;;;;;;4.42;1.15;;;;;;;2.33;93.99;101160.17;1811523;79;21086;-63
2022/02/01 06:08:05;;;;;;;5.35;1.40;;;;;;;2.37;94.01;101150.20;1804363;79;21043;-60
2022/02/01 06:10:33;;;;;;;3.25;0.98;;;;;;;2.44;94.11;101155.84;1807954;79;21021;-60
2022/02/01 06:13:02;;;;;;;3.25;1.12;;;;;;;2.52;94.17;101156.70;1814530;79;21118;-60
2022/02/01 06:15:34;;;;;;;2.20;1.17;;;;;;;2.57;94.14;101157.59;1814404;79;21049;-60
2022/02/01 06:18:02;;;;;;;2.75;0.90;;;;;;;2.62;94.02;101144.57;1806849;79;21015;-60
2022/02/01 06:20:31;;;;;;;2.85;0.95;;;;;;;2.66;94.21;101140.69;1796315;80;21566;-60
2022/02/01 06:22:59;;;;;;;1.45;0.68;;;;;;;2.74;93.80;101155.42;1796506;80;21047;-61
2022/02/01 06:28:07;;;;;;;1.65;0.85;;;;;;;2.88;94.14;101169.30;1864906;77;21564;-60
2022/02/01 06:30:36;;;;;;;1.70;1.00;;;;;;;2.93;94.24;101161.03;1837855;78;21120;-60
2022/02/01 06:33:05;;;;;;;1.82;0.75;;;;;;;2.95;94.33;101165.83;1837621;78;21050;-60
2022/02/01 06:35:34;;;;;;;1.62;1.02;;;;;;;2.97;94.27;101164.09;1837985;78;21550;-60
2022/02/01 06:38:02;;;;;;;4.67;1.75;;;;;;;3.02;94.28;101166.67;1837848;78;21062;-60
2022/02/01 06:40:31;;;;;;;1.37;0.80;;;;;;;3.09;94.31;101177.06;1838048;78;21509;-60
2022/02/01 06:43:01;;;;;;;3.00;1.25;;;;;;;3.18;94.33;101181.39;1837600;78;21555;-61
2022/02/01 06:45:30;;;;;;;5.33;1.40;;;;;;;3.25;94.39;101176.62;1837840;78;21034;-60
2022/02/01 06:47:58;;;;;;;2.55;1.20;;;;;;;3.35;94.48;101181.36;1837771;78;21132;-61
2022/02/01 06:50:27;;;;;;;3.87;1.60;;;;;;;3.45;94.48;101176.58;1837785;78;21101;-61
2022/02/01 06:52:57;;;;;;;3.52;2.35;;;;;;;3.62;94.55;101174.36;1837944;78;21132;-60
2022/02/01 06:55:45;;;;;;;5.08;2.22;;;;;;;3.86;94.57;101168.19;1837604;78;21473;-60
2022/02/01 06:58:04;;;;;;;6.33;2.80;;;;;;;4.07;94.53;101167.20;1839820;77;21066;-61
2022/02/01 07:00:33;;;;;;;3.35;1.32;;;;;;;4.34;94.41;101161.41;1837783;78;21112;-62
2022/02/01 07:03:02;;;;;;;3.87;1.75;;;;;;;5.13;93.54;101164.25;1837857;78;21023;-61
2022/02/01 07:05:30;;;;;;;3.62;1.37;;;;;;;5.47;93.41;101173.89;1837700;78;21093;-60
2022/02/01 07:07:59;;;;;;;4.80;1.40;;;;;;;6.52;92.41;101179.10;1836388;78;21548;-61
2022/02/01 07:10:28;;;;;;;2.05;1.00;;;;;;;7.14;91.54;101179.82;1836069;78;21485;-63
2022/02/01 07:12:57;;;;;;;4.85;1.30;;;;;;;7.18;91.26;101176.70;1836293;78;21450;-62
2022/02/01 07:15:25;;;;;;;3.33;1.47;;;;;;;6.78;91.68;101177.38;1836056;78;21552;-62
2022/02/01 07:17:56;;;;;;;3.17;1.12;;;;;;;6.47;92.10;101180.46;1836092;78;21075;-62
2022/02/01 07:20:26;;;;;;;3.87;1.07;;;;;;;6.15;92.56;101180.48;1836165;78;21109;-62
2022/02/01 07:22:55;;;;;;;1.17;0.93;;;;;;;5.91;93.18;101176.87;1836889;78;21023;-63
2022/02/01 07:25:32;;;;;;;3.80;1.10;;;;;;;6.27;93.62;101178.59;1842076;77;21071;-61
2022/02/01 07:28:05;;;;;;;1.98;1.00;;;;;;;7.24;92.95;101177.89;1854475;76;21110;-62
2022/02/01 07:30:34;;;;;;;3.05;1.22;;;;;;;8.30;91.52;101176.20;1853022;77;21028;-62
2022/02/01 07:33:03;;;;;;;2.00;0.88;;;;;;;9.61;89.19;101168.53;1854349;77;21486;-62
2022/02/01 07:35:31;;;;;;;4.00;1.60;;;;;;;10.47;86.69;101172.16;1854556;77;21533;-63
2022/02/01 07:38:01;;;;;;;5.75;3.50;;;;;;;10.62;86.02;101171.66;1854544;77;21482;-65
2022/02/01 07:40:29;;;;;;;5.22;2.87;;;;;;;11.18;84.74;101184.72;1854271;77;21643;-62
2022/02/01 07:42:59;;;;;;;4.70;2.25;;;;;;;11.88;82.81;101188.39;1854576;77;21060;-61
2022/02/01 07:45:30;;;;;;;4.42;1.00;;;;;;;12.69;81.06;101192.31;1849616;77;21434;-62
2022/02/01 07:48:00;;;;;;;2.42;0.70;;;;;;;13.41;79.28;101194.18;1832704;78;21012;-62
2022/02/01 07:50:32;;;;;;;3.42;1.32;;;;;;;13.96;77.93;101192.18;1832615;78;21145;-62
2022/02/01 07:53:01;;;;;;;4.33;1.20;;;;;;;14.31;76.82;101200.27;1832657;78;21024;-61
2022/02/01 07:55:30;;;;;;;2.80;0.70;;;;;;;14.45;76.30;101204.45;1834015;77;21457;-61
2022/02/01 07:57:59;;;;;;;4.30;1.00;;;;;;;13.65;78.18;101205.50;1832586;77;21024;-62
2022/02/01 08:00:28;;;;;;;2.40;1.07;;;;;;;13.38;79.32;101201.80;1845788;77;21173;-61
2022/02/01 08:02:57;;;;;;;1.07;0.95;;;;;;;13.67;78.21;101215.55;1840824;77;21011;-60
2022/02/01 08:05:29;;;;;;;8.93;3.20;;;;;;;13.95;77.66;101210.34;1851274;76;21122;-62
2022/02/01 08:08:01;;;;;;;4.55;1.80;;;;;;;14.38;77.03;101204.35;1831918;77;21144;-60
2022/02/01 08:10:37;;;;;;;11.83;5.75;;;;;;;15.17;74.58;101205.38;1827835;78;21101;-60
2022/02/01 08:18:33;;;;;;;2.83;1.30;;;;;;;15.86;72.37;101186.33;1830200;77;21144;-60
2022/02/01 08:20:58;;;;;;;4.00;1.02;;;;;;;16.09;72.04;101188.59;1852795;76;21050;-60
2022/02/01 08:23:26;;;;;;;4.33;1.10;;;;;;;16.27;72.00;101195.14;1851388;76;21074;-60
2022/02/01 08:25:55;;;;;;;3.70;0.95;;;;;;;16.23;71.86;101182.53;1851878;76;21117;-61
2022/02/01 08:28:24;;;;;;;2.58;0.90;;;;;;;15.99;73.02;101183.38;1854009;77;21183;-61
2022/02/01 08:30:54;;;;;;;3.40;1.20;;;;;;;15.63;74.53;101187.91;1854229;76;21502;-61
2022/02/01 08:33:23;;;;;;;2.58;1.00;;;;;;;14.97;75.21;101186.49;1854372;77;21124;-61
2022/02/01 08:35:52;;;;;;;2.65;0.80;;;;;;;14.51;76.43;101190.91;1854459;77;21050;-65
2022/02/01 08:38:21;;;;;;;5.67;2.30;;;;;;;13.12;78.70;101187.03;1854320;77;21054;-65
2022/02/01 08:40:50;;;;;;;10.10;1.37;;;;;;;12.13;81.62;101201.53;1854265;77;21914;-66
2022/02/01 08:43:20;;;;;;;2.50;0.78;;;;;;;11.28;82.86;101200.22;1854312;77;21458;-66
2022/02/01 08:45:49;;;;;;;4.83;1.05;;;;;;;10.58;84.28;101197.23;1861781;75;21047;-61
2022/02/01 08:48:18;;;;;;;3.65;1.45;;;;;;;9.95;84.95;101184.64;1844311;77;21116;-61
2022/02/01 08:50:47;;;;;;;5.47;1.07;;;;;;;9.38;85.61;101190.64;1854327;77;21046;-60
2022/02/01 08:53:23;;;;;;;4.67;1.35;;;;;;;9.10;86.63;101187.42;1854243;76;21074;-61
2022/02/01 08:57:20;;;;;;;3.17;1.25;;;;;;;8.98;87.75;101187.30;1854827;76;21369;-61
2022/02/01 08:58:20;;;;;;;7.60;1.50;;;;;;;9.19;88.99;101188.95;1850183;76;21183;-61
2022/02/01 09:00:49;;;;;;;6.78;1.30;;;;;;;9.46;88.69;101188.65;1854302;77;21136;-61
2022/02/01 09:03:18;;;;;;;5.62;1.75;;;;;;;10.03;86.99;101184.41;1854366;77;21544;-61
2022/02/01 09:05:49;;;;;;;6.22;1.27;;;;;;;10.36;86.52;101193.55;1854226;77;21160;-61
2022/02/01 09:08:19;;;;;;;3.37;1.12;;;;;;;10.87;86.08;101186.22;1854417;77;21092;-61
2022/02/01 09:10:48;;;;;;;7.08;1.07;;;;;;;11.24;85.17;101188.06;1854296;77;21108;-60
2022/02/01 09:13:16;;;;;;;3.37;1.00;;;;;;;11.39;84.33;101193.65;1854347;77;21538;-61
2022/02/01 09:15:45;;;;;;;2.95;0.90;;;;;;;11.15;81.56;101184.82;1854332;77;21003;-61
2022/02/01 09:18:14;;;;;;;2.83;0.70;;;;;;;10.93;82.52;101181.20;1854177;77;21116;-61
2022/02/01 09:20:42;;;;;;;2.35;1.30;;;;;;;10.61;81.75;101185.29;1854403;77;21038;-60
2022/02/01 09:23:11;;;;;;;4.30;0.60;;;;;;;10.43;81.89;101176.66;1854448;77;21023;-61
2022/02/01 09:25:40;;;;;;;5.60;1.22;;;;;;;10.46;85.41;101173.94;1854344;77;21120;-60
2022/02/01 09:28:08;;;;;;;6.58;0.82;;;;;;;10.60;85.50;101170.84;1854266;77;21094;-61
2022/02/01 09:30:39;;;;;;;3.45;1.32;;;;;;;10.65;85.10;101160.19;1854334;77;21493;-61
2022/02/01 09:33:07;;;;;;;2.77;1.20;;;;;;;10.55;84.47;101156.97;1854321;76;21113;-61
2022/02/01 09:35:36;;;;;;;2.08;0.80;;;;;;;10.50;83.42;101148.38;1854331;77;21054;-61
2022/02/01 09:38:05;;;;;;;5.47;0.90;;;;;;;10.43;82.69;101160.40;1854333;77;21489;-61
2022/02/01 09:40:34;;;;;;;9.85;3.02;;;;;;;10.41;84.28;101159.59;1854346;77;21066;-61
2022/02/01 09:43:03;;;;;;;6.03;2.15;;;;;;;10.32;84.84;101165.61;1854293;77;21558;-60
2022/02/01 09:45:36;;;;;;;5.72;1.30;;;;;;;10.11;81.59;101163.16;1854258;77;21157;-61
2022/02/01 09:48:06;;;;;;;4.28;1.37;;;;;;;9.78;82.55;101163.25;1854529;77;21042;-61
2022/02/01 09:50:35;;;;;;;4.62;1.35;;;;;;;9.40;82.29;101154.66;1854408;77;21034;-60
2022/02/01 09:53:05;;;;;;;7.17;1.50;;;;;;;9.13;82.49;101166.34;1854277;77;21485;-61
2022/02/01 09:55:33;;;;;;;3.47;1.10;;;;;;;8.85;81.92;101166.16;1854270;77;21120;-60
2022/02/01 09:58:02;;;;;;;5.50;0.98;;;;;;;8.77;82.41;101172.92;1854311;77;21062;-60
2022/02/01 10:00:44;;;;;;;6.92;1.17;;;;;;;9.03;81.91;101167.47;1854281;77;21821;-61
2022/02/01 10:03:12;;;;;;;3.12;1.20;;;;;;;9.37;80.37;101164.81;1854766;76;21583;-60
2022/02/01 10:05:42;;;;;;;7.70;1.40;;;;;;;9.62;77.55;101164.98;1854194;76;21105;-60
2022/02/01 10:08:13;;;;;;;5.28;1.15;;;;;;;9.87;79.06;101161.66;1854213;77;21572;-61
2022/02/01 10:10:43;;;;;;;5.67;1.45;;;;;;;10.48;78.31;101170.80;1854367;77;21211;-61
2022/02/01 10:13:15;;;;;;;6.62;1.50;;;;;;;10.40;76.33;101172.36;1854394;77;21054;-61
2022/02/01 10:15:58;;;;;;;5.22;1.50;;;;;;;10.37;78.48;101186.92;1854271;76;21104;-61
2022/02/01 10:18:31;;;;;;;5.25;1.30;;;;;;;10.44;77.55;101183.66;1854430;76;21529;-60
2022/02/01 10:21:08;;;;;;;4.72;1.40;;;;;;;10.81;75.17;101177.20;1854218;77;21125;-61
2022/02/01 10:23:41;;;;;;;5.65;1.55;;;;;;;11.20;71.38;101180.25;1854233;77;21026;-61
2022/02/01 10:26:17;;;;;;;4.37;1.50;;;;;;;11.63;70.19;101177.87;1854502;77;21042;-61
2022/02/01 10:37:19;;;;;;;6.53;1.37;;;;;;;12.67;67.98;101168.18;1851124;77;21619;-61
2022/02/01 10:39:49;;;;;;;7.20;1.65;;;;;;;11.77;70.91;101172.95;1851168;77;21074;-61
2022/02/01 10:42:19;;;;;;;3.83;1.72;;;;;;;10.77;73.50;101176.45;1851134;77;21114;-61
2022/02/01 10:44:54;;;;;;;5.72;1.60;;;;;;;10.17;75.81;101183.55;1851116;76;21034;-61
2022/02/01 10:47:43;;;;;;;6.95;1.62;;;;;;;9.89;76.99;101173.00;1851101;77;21023;-61
2022/02/01 10:50:14;;;;;;;5.12;1.90;;;;;;;9.93;76.49;101162.78;1851179;76;21070;-61
2022/02/01 10:52:46;;;;;;;7.95;1.70;;;;;;;9.83;76.48;101171.84;1851112;77;21018;-61
2022/02/01 10:55:16;;;;;;;5.78;1.40;;;;;;;9.62;78.06;101164.12;1850996;77;21059;-61
2022/02/01 10:57:46;;;;;;;6.15;1.40;;;;;;;9.45;78.99;101168.08;1851131;77;21038;-61
2022/02/01 11:00:17;;;;;;;4.12;1.50;;;;;;;9.23;78.31;101174.83;1851089;77;21580;-61
2022/02/01 11:02:47;;;;;;;6.58;1.62;;;;;;;9.02;77.51;101171.87;1851042;77;21168;-60
2022/02/01 11:05:19;;;;;;;3.08;1.10;;;;;;;8.76;77.40;101190.91;1851131;77;21113;-60
2022/02/01 11:07:53;;;;;;;4.92;1.00;;;;;;;8.26;73.11;101195.51;1851166;77;21062;-60
2022/02/01 11:10:23;;;;;;;3.70;1.52;;;;;;;7.73;75.17;101211.03;1851394;77;21563;-60
2022/02/01 11:12:52;;;;;;;5.72;1.87;;;;;;;7.33;75.89;101209.16;1851002;77;21111;-61
2022/02/01 11:15:24;;;;;;;6.67;2.58;;;;;;;7.43;78.24;101195.89;1851111;77;21493;-61
2022/02/01 11:17:52;;;;;;;13.50;5.55;;;;;;;8.61;78.42;101193.88;1851114;77;21042;-61
2022/02/01 11:20:29;;;;;;;10.03;3.58;;;;;;;9.07;78.60;101184.44;1851117;77;21576;-61
2022/02/01 11:23:07;;;;;;;8.35;2.87;;;;;;;8.97;78.83;101192.58;1851102;77;21125;-60
2022/02/01 11:25:50;;;;;;;10.45;3.25;;;;;;;8.72;79.58;101183.13;1850833;77;21149;-61
2022/02/01 11:28:41;;;;;;;4.92;2.30;;;;;;;8.50;80.49;101192.38;1851797;76;21118;-61
2022/02/01 11:31:05;;;;;;;9.98;2.25;;;;;;;8.49;81.39;101177.52;1855134;76;21050;-60
2022/02/01 11:33:39;;;;;;;5.35;2.33;;;;;;;9.27;80.73;101166.81;1854413;77;21120;-61
2022/02/01 11:36:10;;;;;;;6.78;2.35;;;;;;;10.51;78.85;101164.56;1854557;77;21120;-61
2022/02/01 11:38:54;;;;;;;4.87;2.05;;;;;;;11.55;76.49;101157.05;1854367;77;21054;-61
2022/02/01 11:41:34;;;;;;;11.15;3.00;;;;;;;12.29;74.60;101151.65;1854359;77;21133;-61
2022/02/01 11:44:10;;;;;;;7.15;2.75;;;;;;;12.38;74.30;101150.90;1854216;77;21085;-61
2022/02/01 11:46:40;;;;;;;8.45;3.02;;;;;;;12.96;73.43;101151.12;1854329;77;21096;-61
2022/02/01 11:49:08;;;;;;;9.58;2.30;;;;;;;13.44;72.11;101151.73;1854374;77;21547;-60
2022/02/01 11:51:37;;;;;;;8.75;3.15;;;;;;;13.50;72.08;101152.33;1854380;77;21054;-60
2022/02/01 11:54:07;;;;;;;8.13;2.60;;;;;;;13.36;72.55;101153.41;1854363;77;21082;-60
2022/02/01 11:56:38;;;;;;;10.30;3.17;;;;;;;13.27;73.21;101147.16;1854253;77;21492;-61
2022/02/01 11:59:09;;;;;;;7.25;2.65;;;;;;;13.09;74.09;101148.81;1854436;77;21042;-61
2022/02/01 12:01:39;;;;;;;5.70;3.00;;;;;;;12.55;75.34;101155.87;1854345;76;21132;-60
2022/02/01 12:04:15;;;;;;;9.73;3.42;;;;;;;11.72;75.63;101161.70;1854340;77;21042;-61
2022/02/01 12:06:55;;;;;;;4.80;1.87;;;;;;;10.81;75.70;101156.98;1854407;77;21047;-61
2022/02/01 12:09:21;;;;;;;5.67;1.95;;;;;;;10.15;76.09;101164.78;1854906;76;21116;-61
2022/02/01 12:12:01;;;;;;;6.60;2.58;;;;;;;9.83;78.06;101173.16;1854513;77;21141;-61
2022/02/01 12:14:31;;;;;;;6.92;2.77;;;;;;;10.23;77.62;101171.97;1854535;77;21042;-60
2022/02/01 12:17:00;;;;;;;5.17;1.77;;;;;;;10.39;76.88;101171.94;1854477;77;21500;-60
2022/02/01 12:19:38;;;;;;;3.55;1.80;;;;;;;10.13;77.19;101177.13;1854322;77;21056;-61
2022/02/01 12:22:15;;;;;;;5.95;1.70;;;;;;;9.78;77.96;101175.08;1854358;77;21575;-61
2022/02/01 12:24:43;;;;;;;5.92;1.98;;;;;;;9.28;78.07;101169.01;1853462;77;21087;-60
2022/02/01 12:27:12;;;;;;;4.67;2.42;;;;;;;8.95;78.70;101170.75;1854376;77;21066;-60
2022/02/01 12:29:41;;;;;;;4.67;2.30;;;;;;;8.77;80.04;101175.55;1843841;77;21519;-60
2022/02/01 12:32:11;;;;;;;9.95;2.70;;;;;;;8.61;80.32;101172.45;1834716;78;21061;-60
2022/02/01 12:34:40;;;;;;;5.85;2.30;;;;;;;8.42;80.58;101168.06;1834668;78;21119;-60
2022/02/01 12:37:09;;;;;;;6.87;3.47;;;;;;;8.37;81.59;101173.83;1834849;78;21041;-60
2022/02/01 12:39:43;;;;;;;8.98;2.58;;;;;;;8.34;82.18;101168.67;1834604;78;21476;-60
2022/02/01 12:42:15;;;;;;;9.10;2.30;;;;;;;8.40;82.93;101176.39;1835811;76;21049;-60
2022/02/01 12:47:25;;;;;;;9.03;2.33;;;;;;;8.28;83.75;101175.34;1834600;77;21166;-61
2022/02/01 12:49:55;;;;;;;6.55;2.67;;;;;;;8.23;82.68;101179.40;1803041;79;21470;-60
2022/02/01 12:52:32;;;;;;;10.08;3.12;;;;;;;8.17;82.98;101178.23;1834735;78;21057;-60
2022/02/01 12:55:07;;;;;;;4.97;2.85;;;;;;;8.23;83.90;101177.23;1803025;79;21051;-61
2022/02/01 12:57:37;;;;;;;7.00;2.67;;;;;;;8.31;83.96;101176.14;1834593;78;21048;-61
2022/02/01 13:00:12;;;;;;;5.20;2.67;;;;;;;8.39;83.87;101172.48;1803039;79;21067;-60
2022/02/01 13:02:41;;;;;;;4.87;2.62;;;;;;;8.39;83.66;101177.30;1834603;78;21021;-60
2022/02/01 13:05:13;;;;;;;5.55;2.60;;;;;;;8.25;82.70;101178.06;1803003;79;21572;-60
2022/02/01 13:21:11;;;;;;;5.05;2.45;;;;;;;7.71;85.51;101187.06;1803116;79;21067;-60